createdAt,value
2022-11-10T00:03:03.409Z,100637.88
2022-11-10T00:05:52.590Z,100628.13
2022-11-10T00:08:40.454Z,100629.94
2022-11-10T00:11:28.045Z,100633.53
2022-11-10T00:14:33.285Z,100639.78
2022-11-10T00:17:20.970Z,100635.31
2022-11-10T00:20:10.246Z,100637.09
2022-11-10T00:22:59.466Z,100623.81
2022-11-10T00:25:47.155Z,100623.75
2022-11-10T00:28:34.747Z,100615.75
2022-11-10T00:31:22.395Z,100619.28
2022-11-10T00:34:15.324Z,100620.16
2022-11-10T00:37:03.032Z,100628.13
2022-11-10T00:39:52.226Z,100627.28
2022-11-10T00:42:40.083Z,100624.47
2022-11-10T00:45:27.646Z,100627.13
2022-11-10T00:48:15.521Z,100636.91
2022-11-10T00:51:03.312Z,100629.72
2022-11-10T00:53:51.332Z,100634.09
2022-11-10T00:56:40.300Z,100638.56
2022-11-10T00:59:28.444Z,100641.19
2022-11-10T01:02:16.464Z,100629.63
2022-11-10T01:05:04.518Z,100637.63
2022-11-10T01:07:52.583Z,100641.19
2022-11-10T01:10:40.684Z,100636.75
2022-11-10T01:13:29.640Z,100640.31
2022-11-10T01:16:21.591Z,100640.31
2022-11-10T01:19:09.422Z,100634.09
2022-11-10T01:21:57.277Z,100645.72
2022-11-10T01:24:45.024Z,100643.88
2022-11-10T01:27:33.130Z,100643.88
2022-11-10T01:30:22.147Z,100649.22
2022-11-10T01:33:10.226Z,100642.16
2022-11-10T01:35:58.433Z,100643.03
2022-11-10T01:38:46.754Z,100644.84
2022-11-10T01:41:34.347Z,100649.31
2022-11-10T01:44:24.436Z,100649.31
2022-11-10T01:47:13.363Z,100650.13
2022-11-10T01:50:01.693Z,100652.78
2022-11-10T01:52:53.376Z,100663.47
2022-11-10T01:55:44.895Z,100657.31
2022-11-10T01:58:39.938Z,100657.31
2022-11-10T02:01:28.469Z,100651.00
2022-11-10T02:04:20.492Z,100641.19
2022-11-10T02:07:10.156Z,100657.22
2022-11-10T02:09:57.948Z,100649.19
2022-11-10T02:12:47.085Z,100655.34
2022-11-10T02:15:34.636Z,100655.34
2022-11-10T02:18:22.551Z,100660.69
2022-11-10T02:21:11.954Z,100659.72
2022-11-10T02:23:59.745Z,100663.28
2022-11-10T02:26:51.215Z,100670.31
2022-11-10T02:29:38.995Z,100671.25
2022-11-10T02:32:26.507Z,100679.22
2022-11-10T02:35:14.109Z,100671.25
2022-11-10T02:38:03.295Z,100673.00
2022-11-10T02:40:51.479Z,100678.34
2022-11-10T02:43:39.663Z,100673.00
2022-11-10T02:46:28.197Z,100676.56
2022-11-10T02:49:16.045Z,100679.25
2022-11-10T02:52:04.123Z,100683.75
2022-11-10T02:54:53.218Z,100680.19
2022-11-10T02:57:41.247Z,100680.19
2022-11-10T03:00:29.993Z,100685.41
2022-11-10T03:03:18.251Z,100685.41
2022-11-10T03:06:05.998Z,100682.69
2022-11-10T03:08:54.215Z,100682.72
2022-11-10T03:11:43.015Z,100688.13
2022-11-10T03:14:30.705Z,100689.94
2022-11-10T03:17:18.455Z,100689.94
2022-11-10T03:20:07.065Z,100696.16
2022-11-10T03:22:54.886Z,100692.66
2022-11-10T03:25:42.936Z,100692.59
2022-11-10T03:28:32.331Z,100690.88
2022-11-10T03:31:20.543Z,100701.50
2022-11-10T03:34:08.283Z,100692.59
2022-11-10T03:36:56.425Z,100700.75
2022-11-10T03:39:44.257Z,100708.69
2022-11-10T03:42:32.109Z,100708.75
2022-11-10T03:45:21.445Z,100709.66
2022-11-10T03:48:09.812Z,100724.88
2022-11-10T03:50:57.452Z,100727.56
2022-11-10T03:53:45.477Z,100731.09
2022-11-10T03:56:33.315Z,100728.44
2022-11-10T03:59:21.303Z,100725.75
2022-11-10T04:02:10.828Z,100718.66
2022-11-10T04:05:16.105Z,100717.81
2022-11-10T04:08:21.543Z,100732.03
2022-11-10T04:11:09.414Z,100739.19
2022-11-10T04:14:23.197Z,100744.53
2022-11-10T04:17:12.298Z,100737.44
2022-11-10T04:20:00.414Z,100742.75
2022-11-10T04:23:06.234Z,100749.88
2022-11-10T04:26:07.839Z,100747.19
2022-11-10T04:28:57.983Z,100740.09
2022-11-10T04:31:45.789Z,100748.09
2022-11-10T04:34:34.987Z,100752.56
2022-11-10T04:37:22.564Z,100762.41
2022-11-10T04:40:11.597Z,100749.97
2022-11-10T04:42:59.417Z,100755.31
2022-11-10T04:45:47.377Z,100760.66
2022-11-10T04:48:36.102Z,100764.13
2022-11-10T04:51:28.275Z,100765.00
2022-11-10T04:54:16.198Z,100763.31
2022-11-10T04:57:04.476Z,100766.97
2022-11-10T04:59:51.979Z,100774.06
2022-11-10T05:02:40.026Z,100763.44
2022-11-10T05:05:27.896Z,100767.84
2022-11-10T05:08:17.431Z,100767.84
2022-11-10T05:11:05.453Z,100773.25
2022-11-10T05:13:53.821Z,100776.88
2022-11-10T05:16:41.887Z,100768.06
2022-11-10T05:19:29.981Z,100767.25
2022-11-10T05:22:17.831Z,100774.38
2022-11-10T05:25:08.639Z,100782.47
2022-11-10T05:27:56.495Z,100787.78
2022-11-10T05:30:45.053Z,100787.91
2022-11-10T05:33:33.930Z,100793.22
2022-11-10T05:36:21.887Z,100796.84
2022-11-10T05:39:09.679Z,100798.69
2022-11-10T05:41:59.392Z,100813.84
2022-11-10T05:44:47.278Z,100816.56
2022-11-10T05:47:37.970Z,100820.22
2022-11-10T05:50:26.557Z,100821.19
2022-11-10T05:53:14.847Z,100824.75
2022-11-10T05:56:02.355Z,100826.59
2022-11-10T05:58:51.815Z,100834.63
2022-11-10T06:01:39.565Z,100842.69
2022-11-10T06:04:27.456Z,100846.25
2022-11-10T06:07:15.362Z,100842.75
2022-11-10T06:10:04.564Z,100836.59
2022-11-10T06:12:52.783Z,100851.78
2022-11-10T06:15:46.112Z,100854.56
2022-11-10T06:18:37.127Z,100865.28
2022-11-10T06:21:25.026Z,100875.13
2022-11-10T06:24:13.044Z,100888.53
2022-11-10T06:27:00.966Z,100895.69
2022-11-10T06:29:49.093Z,100891.28
2022-11-10T06:32:38.576Z,100899.38
2022-11-10T06:35:27.004Z,100910.94
2022-11-10T06:38:15.204Z,100912.78
2022-11-10T06:41:02.926Z,100912.84
2022-11-10T06:43:50.911Z,100918.22
2022-11-10T06:46:42.215Z,100932.44
2022-11-10T06:49:31.630Z,100926.22
2022-11-10T06:52:19.218Z,100922.72
2022-11-10T06:55:08.570Z,100937.00
2022-11-10T06:57:56.271Z,100947.66
2022-11-10T07:00:44.403Z,100959.22
2022-11-10T07:03:31.830Z,100953.84
2022-11-10T07:06:21.435Z,100958.22
2022-11-10T07:09:09.353Z,100966.16
2022-11-10T07:11:57.688Z,100966.09
2022-11-10T07:14:45.354Z,100978.41
2022-11-10T07:17:33.316Z,100975.75
2022-11-10T07:20:20.966Z,100976.63
2022-11-10T07:23:10.564Z,100973.94
2022-11-10T07:25:59.879Z,100979.16
2022-11-10T07:28:47.565Z,100983.59
2022-11-10T07:31:35.598Z,100979.97
2022-11-10T07:34:23.606Z,100979.06
2022-11-10T07:37:11.216Z,100982.44
2022-11-10T07:40:00.522Z,100985.81
2022-11-10T07:42:48.220Z,100986.53
2022-11-10T07:45:36.487Z,100985.56
2022-11-10T07:48:24.459Z,100986.28
2022-11-10T07:51:12.648Z,100989.69
2022-11-10T07:54:00.183Z,100990.31
2022-11-10T07:56:49.802Z,100994.66
2022-11-10T07:59:37.425Z,100999.81
2022-11-10T08:02:25.481Z,101003.09
2022-11-10T08:05:13.111Z,101013.56
2022-11-10T08:08:01.663Z,101008.09
2022-11-10T08:10:49.515Z,101023.06
2022-11-10T08:13:39.448Z,101026.41
2022-11-10T08:16:26.839Z,101026.06
2022-11-10T08:19:14.940Z,101036.56
2022-11-10T08:22:02.753Z,101039.72
2022-11-10T08:24:50.687Z,101047.38
2022-11-10T08:27:37.833Z,101039.09
2022-11-10T08:30:27.537Z,101040.59
2022-11-10T08:33:16.379Z,101058.09
2022-11-10T08:36:04.962Z,101068.44
2022-11-10T08:38:52.777Z,101069.16
2022-11-10T08:41:40.717Z,101083.94
2022-11-10T08:44:27.986Z,101079.38
2022-11-10T08:47:17.487Z,101082.72
2022-11-10T08:50:05.274Z,101093.34
2022-11-10T08:52:54.811Z,101094.00
2022-11-10T08:55:43.028Z,101098.38
2022-11-10T08:58:31.461Z,101099.03
2022-11-10T09:01:19.026Z,101100.03
2022-11-10T09:04:08.361Z,101100.84
2022-11-10T09:06:57.886Z,101098.22
2022-11-10T09:10:01.412Z,101107.13
2022-11-10T09:12:54.633Z,101106.09
2022-11-10T09:15:43.855Z,101107.81
2022-11-10T09:18:32.224Z,101117.69
2022-11-10T09:21:21.450Z,101118.59
2022-11-10T09:24:09.473Z,101120.34
2022-11-10T09:26:57.679Z,101128.56
2022-11-10T09:29:45.432Z,101129.47
2022-11-10T09:32:33.736Z,101127.75
2022-11-10T09:35:21.310Z,101134.72
2022-11-10T09:38:11.912Z,101134.72
2022-11-10T09:41:03.453Z,101137.34
2022-11-10T09:44:03.244Z,101147.06
2022-11-10T09:46:55.580Z,101151.31
2022-11-10T09:49:50.989Z,101157.31
2022-11-10T09:52:40.612Z,101164.19
2022-11-10T09:55:38.749Z,101151.53
2022-11-10T09:58:33.254Z,101165.38
2022-11-10T10:01:31.829Z,101167.88
2022-11-10T10:04:40.268Z,101162.25
2022-11-10T10:07:40.176Z,101163.19
2022-11-10T10:10:39.055Z,101171.94
2022-11-10T10:13:49.009Z,101179.78
2022-11-10T10:16:45.320Z,101186.78
2022-11-10T10:19:43.201Z,101188.47
2022-11-10T10:22:55.725Z,101184.78
2022-11-10T10:25:47.958Z,101202.44
2022-11-10T10:28:39.425Z,101192.66
2022-11-10T10:31:31.523Z,101204.88
2022-11-10T10:34:22.654Z,101206.63
2022-11-10T10:37:24.102Z,101201.97
2022-11-10T10:40:16.811Z,101199.91
2022-11-10T10:43:06.162Z,101206.81
2022-11-10T10:46:07.466Z,101210.22
2022-11-10T10:49:28.149Z,101210.94
2022-11-10T10:52:20.876Z,101209.88
2022-11-10T10:55:10.871Z,101209.72
2022-11-10T10:58:01.743Z,101213.16
2022-11-10T11:00:53.163Z,101216.66
2022-11-10T11:03:44.392Z,101218.34
2022-11-10T11:06:34.049Z,101220.88
2022-11-10T11:09:25.836Z,101231.53
2022-11-10T11:12:15.859Z,101236.06
2022-11-10T11:15:22.374Z,101245.97
2022-11-10T11:18:16.505Z,101253.06
2022-11-10T11:21:15.330Z,101246.78
2022-11-10T11:24:24.896Z,101252.19
2022-11-10T11:27:19.938Z,101247.00
2022-11-10T11:30:13.290Z,101252.34
2022-11-10T11:33:24.554Z,101253.16
2022-11-10T11:36:25.271Z,101247.84
2022-11-10T11:39:27.198Z,101254.88
2022-11-10T11:42:26.241Z,101249.50
2022-11-10T11:45:21.741Z,101267.19
2022-11-10T11:48:41.679Z,101268.75
2022-11-10T11:51:37.370Z,101273.78
2022-11-10T11:54:31.538Z,101273.75
2022-11-10T11:57:38.666Z,101285.13
2022-11-10T12:00:28.154Z,101279.47
2022-11-10T12:03:48.867Z,101287.78
2022-11-10T12:06:48.163Z,101291.47
2022-11-10T12:09:41.205Z,101289.66
2022-11-10T12:13:01.050Z,101303.25
2022-11-10T12:15:56.051Z,101308.69
2022-11-10T12:18:53.516Z,101305.22
2022-11-10T12:21:52.097Z,101311.50
2022-11-10T12:24:52.312Z,101314.28
2022-11-10T12:27:45.997Z,101318.84
2022-11-10T12:30:36.835Z,101317.19
2022-11-10T12:33:34.618Z,101327.84
2022-11-10T12:36:25.398Z,101327.94
2022-11-10T12:39:21.979Z,101327.84
2022-11-10T12:42:15.962Z,101339.47
2022-11-10T12:45:06.188Z,101334.84
2022-11-10T12:47:56.236Z,101335.75
2022-11-10T12:50:52.249Z,101335.75
2022-11-10T12:53:42.845Z,101350.06
2022-11-10T12:56:38.982Z,101349.16
2022-11-10T12:59:37.485Z,101365.41
2022-11-10T13:02:33.537Z,101368.19
2022-11-10T13:05:33.667Z,101371.00
2022-11-10T13:08:27.923Z,101381.03
2022-11-10T13:11:29.011Z,101376.81
2022-11-10T13:14:27.094Z,101375.19
2022-11-10T13:18:00.256Z,101382.56
2022-11-10T13:20:57.102Z,101390.75
2022-11-10T13:24:23.227Z,101391.84
2022-11-10T13:27:34.651Z,101393.03
2022-11-10T13:30:39.880Z,101393.13
2022-11-10T13:33:38.613Z,101396.84
2022-11-10T13:36:40.151Z,101401.50
2022-11-10T13:39:30.863Z,101407.81
2022-11-10T13:42:23.400Z,101411.47
2022-11-10T13:45:31.194Z,101432.19
2022-11-10T13:48:33.940Z,101435.88
2022-11-10T13:51:33.054Z,101435.06
2022-11-10T13:54:47.749Z,101428.97
2022-11-10T13:57:38.928Z,101441.53
2022-11-10T14:00:29.448Z,101450.63
2022-11-10T14:03:50.259Z,101460.59
2022-11-10T14:06:46.544Z,101458.03
2022-11-10T14:09:39.632Z,101459.91
2022-11-10T14:12:34.592Z,101455.50
2022-11-10T14:15:25.015Z,101460.91
2022-11-10T14:18:19.993Z,101457.41
2022-11-10T14:21:13.389Z,101464.59
2022-11-10T14:24:11.964Z,101476.31
2022-11-10T14:27:01.652Z,101475.56
2022-11-10T14:29:49.408Z,101479.25
2022-11-10T14:32:39.164Z,101489.16
2022-11-10T14:35:30.266Z,101483.00
2022-11-10T14:38:22.060Z,101488.53
2022-11-10T14:41:19.908Z,101495.69
2022-11-10T14:44:12.574Z,101503.91
2022-11-10T14:47:16.299Z,101514.78
2022-11-10T14:50:25.768Z,101523.00
2022-11-10T14:53:20.485Z,101533.84
2022-11-10T14:56:15.213Z,101545.56
2022-11-10T14:59:06.750Z,101567.13
2022-11-10T15:01:57.474Z,101567.28
2022-11-10T15:04:46.993Z,101570.09
2022-11-10T15:07:34.631Z,101588.91
2022-11-10T15:10:24.683Z,101581.88
2022-11-10T15:13:22.849Z,101593.66
2022-11-10T15:16:26.626Z,101597.34
2022-11-10T15:19:30.054Z,101601.94
2022-11-10T15:22:21.224Z,101601.16
2022-11-10T15:25:16.519Z,101609.31
2022-11-10T15:28:07.578Z,101621.94
2022-11-10T15:30:57.591Z,101632.81
2022-11-10T15:33:51.049Z,101634.72
2022-11-10T15:36:40.685Z,101632.09
2022-11-10T15:39:28.849Z,101641.06
2022-11-10T15:42:18.236Z,101631.38
2022-11-10T15:45:07.145Z,101640.38
2022-11-10T15:47:56.192Z,101653.78
2022-11-10T15:50:47.622Z,101649.41
2022-11-10T15:53:38.543Z,101652.16
2022-11-10T15:56:26.825Z,101654.91
2022-11-10T15:59:14.295Z,101653.19
2022-11-10T16:02:02.263Z,101656.84
2022-11-10T16:04:58.609Z,101651.63
2022-11-10T16:07:49.115Z,101660.63
2022-11-10T16:10:36.688Z,101666.03
2022-11-10T16:13:28.379Z,101660.75
2022-11-10T16:16:19.219Z,101673.31
2022-11-10T16:19:07.209Z,101663.63
2022-11-10T16:21:55.306Z,101659.19
2022-11-10T16:24:45.164Z,101657.44
2022-11-10T16:27:32.936Z,101662.84
2022-11-10T16:30:20.948Z,101655.81
2022-11-10T16:33:13.637Z,101657.66
2022-11-10T16:36:01.514Z,101663.03
2022-11-10T16:38:49.075Z,101660.47
2022-11-10T16:41:38.690Z,101676.53
2022-11-10T16:44:26.460Z,101673.06
2022-11-10T16:47:20.204Z,101675.81
2022-11-10T16:50:25.080Z,101672.31
2022-11-10T16:53:17.294Z,101673.34
2022-11-10T16:56:05.306Z,101674.28
2022-11-10T16:58:55.432Z,101676.16
2022-11-10T17:01:44.711Z,101691.38
2022-11-10T17:04:33.980Z,101706.66
2022-11-10T17:07:24.428Z,101698.72
2022-11-10T17:10:16.914Z,101705.09
2022-11-10T17:13:04.622Z,101701.66
2022-11-10T17:15:56.847Z,101706.28
2022-11-10T17:18:45.946Z,101711.69
2022-11-10T17:21:36.957Z,101710.94
2022-11-10T17:24:24.860Z,101719.06
2022-11-10T17:27:12.762Z,101712.97
2022-11-10T17:30:00.602Z,101709.50
2022-11-10T17:33:06.061Z,101716.75
2022-11-10T17:35:55.010Z,101716.84
2022-11-10T17:38:43.618Z,101728.50
2022-11-10T17:41:31.593Z,101725.91
2022-11-10T17:44:20.904Z,101723.34
2022-11-10T17:47:08.487Z,101735.88
2022-11-10T17:49:57.793Z,101734.22
2022-11-10T17:52:46.022Z,101743.19
2022-11-10T17:55:34.571Z,101747.75
2022-11-10T17:58:23.286Z,101769.16
2022-11-10T18:01:16.643Z,101776.34
2022-11-10T18:04:06.106Z,101768.44
2022-11-10T18:06:56.712Z,101772.03
2022-11-10T18:09:44.671Z,101765.00
2022-11-10T18:12:32.569Z,101760.63
2022-11-10T18:15:20.492Z,101760.72
2022-11-10T18:18:11.270Z,101757.22
2022-11-10T18:20:59.147Z,101756.38
2022-11-10T18:23:48.684Z,101755.59
2022-11-10T18:26:36.306Z,101755.66
2022-11-10T18:29:24.159Z,101756.59
2022-11-10T18:32:12.058Z,101763.78
2022-11-10T18:35:00.074Z,101762.97
2022-11-10T18:37:47.874Z,101760.38
2022-11-10T18:40:37.501Z,101752.44
2022-11-10T18:43:25.286Z,101750.72
2022-11-10T18:46:13.449Z,101746.34
2022-11-10T18:49:01.993Z,101744.59
2022-11-10T18:51:50.058Z,101746.41
2022-11-10T18:54:37.678Z,101742.94
2022-11-10T18:57:27.143Z,101742.06
2022-11-10T19:00:15.911Z,101756.28
2022-11-10T19:03:04.242Z,101747.44
2022-11-10T19:05:58.313Z,101743.91
2022-11-10T19:08:46.813Z,101743.91
2022-11-10T19:11:35.413Z,101742.13
2022-11-10T19:14:26.140Z,101748.34
2022-11-10T19:17:13.687Z,101750.97
2022-11-10T19:20:06.790Z,101743.88
2022-11-10T19:22:56.727Z,101747.44
2022-11-10T19:25:44.864Z,101752.72
2022-11-10T19:28:32.962Z,101748.25
2022-11-10T19:31:23.063Z,101749.13
2022-11-10T19:34:10.804Z,101755.31
2022-11-10T19:36:58.727Z,101761.47
2022-11-10T19:39:46.533Z,101756.13
2022-11-10T19:42:35.530Z,101768.47
2022-11-10T19:45:23.103Z,101768.44
2022-11-10T19:48:12.991Z,101786.16
2022-11-10T19:51:02.093Z,101781.66
2022-11-10T19:53:56.478Z,101773.63
2022-11-10T19:56:44.141Z,101778.03
2022-11-10T19:59:32.838Z,101779.75
2022-11-10T20:02:23.146Z,101787.69
2022-11-10T20:05:16.970Z,101792.97
2022-11-10T20:08:12.980Z,101792.94
2022-11-10T20:11:03.325Z,101792.88
2022-11-10T20:13:54.725Z,101797.31
2022-11-10T20:16:43.367Z,101786.63
2022-11-10T20:19:33.677Z,101792.78
2022-11-10T20:22:25.540Z,101797.16
2022-11-10T20:25:13.495Z,101796.19
2022-11-10T20:28:03.555Z,101801.47
2022-11-10T20:30:51.135Z,101798.69
2022-11-10T20:33:39.392Z,101803.97
2022-11-10T20:36:28.547Z,101796.81
2022-11-10T20:39:18.057Z,101791.41
2022-11-10T20:42:10.323Z,101795.81
2022-11-10T20:45:00.894Z,101789.53
2022-11-10T20:47:48.855Z,101793.94
2022-11-10T20:50:39.773Z,101793.91
2022-11-10T20:53:29.361Z,101779.69
2022-11-10T20:56:18.462Z,101789.47
2022-11-10T20:59:06.832Z,101788.59
2022-11-10T21:01:55.089Z,101783.25
2022-11-10T21:04:43.295Z,101780.59
2022-11-10T21:07:31.232Z,101783.25
2022-11-10T21:10:19.064Z,101784.13
2022-11-10T21:13:09.682Z,101787.72
2022-11-10T21:15:59.947Z,101790.38
2022-11-10T21:18:48.428Z,101788.63
2022-11-10T21:21:36.198Z,101790.41
2022-11-10T21:24:24.044Z,101794.00
2022-11-10T21:27:12.762Z,101799.31
2022-11-10T21:30:02.542Z,101801.06
2022-11-10T21:32:52.725Z,101799.34
2022-11-10T21:35:41.180Z,101799.34
2022-11-10T21:38:28.658Z,101798.44
2022-11-10T21:41:17.071Z,101799.34
2022-11-10T21:44:04.563Z,101807.34
2022-11-10T21:46:53.636Z,101807.34
2022-11-10T21:49:41.436Z,101804.63
2022-11-10T21:52:33.513Z,101813.53
2022-11-10T21:55:22.182Z,101812.59
2022-11-10T21:58:12.395Z,101819.72
2022-11-10T22:01:03.173Z,101812.56
2022-11-10T22:03:53.134Z,101829.41
2022-11-10T22:06:58.051Z,101825.84
2022-11-10T22:10:04.901Z,101824.03
2022-11-10T22:13:25.329Z,101832.00
2022-11-10T22:16:40.105Z,101830.19
2022-11-10T22:19:29.463Z,101828.34
2022-11-10T22:22:17.578Z,101831.88
2022-11-10T22:25:05.535Z,101822.91
2022-11-10T22:27:54.259Z,101827.28
2022-11-10T22:30:42.076Z,101834.38
2022-11-10T22:33:30.831Z,101827.22
2022-11-10T22:36:21.744Z,101817.34
2022-11-10T22:39:10.311Z,101827.91
2022-11-10T22:42:15.540Z,101814.53
2022-11-10T22:45:05.606Z,101816.22
2022-11-10T22:48:12.961Z,101811.69
2022-11-10T22:51:02.001Z,101816.97
2022-11-10T22:53:51.436Z,101819.56
2022-11-10T22:56:39.691Z,101820.34
2022-11-10T22:59:27.571Z,101828.31
2022-11-10T23:02:15.789Z,101818.44
2022-11-10T23:05:03.257Z,101823.66
2022-11-10T23:07:52.679Z,101828.00
2022-11-10T23:10:41.788Z,101827.03
2022-11-10T23:13:29.899Z,101830.56
2022-11-10T23:16:19.876Z,101833.09
2022-11-10T23:19:07.931Z,101829.50
2022-11-10T23:21:55.897Z,101838.38
2022-11-10T23:24:43.849Z,101831.16
2022-11-10T23:27:34.525Z,101833.78
2022-11-10T23:30:24.373Z,101836.34
2022-11-10T23:33:12.035Z,101828.28
2022-11-10T23:36:00.577Z,101813.16
2022-11-10T23:38:49.877Z,101828.22
2022-11-10T23:41:37.832Z,101821.94
2022-11-10T23:44:29.359Z,101815.72
2022-11-10T23:47:17.601Z,101811.22
2022-11-10T23:50:05.871Z,101814.72
2022-11-10T23:52:54.022Z,101812.03
2022-11-10T23:55:42.205Z,101818.25
2022-11-10T23:58:30.842Z,101815.53
